sensor_id;sensor_type;location;lat;lon;timestamp;P1;durP1;ratioP1;P2;durP2;ratioP2
31660;SDS011;18267;52.234;7.444;2022-09-09T00:02:22;5.72;;;1.83;;
31660;SDS011;18267;52.234;7.444;2022-09-09T00:04:59;4.00;;;1.98;;
31660;SDS011;18267;52.234;7.444;2022-09-09T00:07:41;4.13;;;1.65;;
31660;SDS011;18267;52.234;7.444;2022-09-09T00:15:23;5.70;;;1.67;;
31660;SDS011;18267;52.234;7.444;2022-09-09T00:23:35;4.13;;;1.75;;
31660;SDS011;18267;52.234;7.444;2022-09-09T00:32:00;11.13;;;2.30;;
31660;SDS011;18267;52.234;7.444;2022-09-09T00:34:46;9.88;;;2.15;;
31660;SDS011;18267;52.234;7.444;2022-09-09T00:37:24;5.25;;;2.03;;
31660;SDS011;18267;52.234;7.444;2022-09-09T00:39:51;6.93;;;2.00;;
31660;SDS011;18267;52.234;7.444;2022-09-09T00:42:36;4.32;;;1.92;;
31660;SDS011;18267;52.234;7.444;2022-09-09T00:58:06;3.30;;;2.22;;
31660;SDS011;18267;52.234;7.444;2022-09-09T01:00:35;10.25;;;2.45;;
31660;SDS011;18267;52.234;7.444;2022-09-09T01:05:48;4.05;;;1.90;;
31660;SDS011;18267;52.234;7.444;2022-09-09T01:13:53;5.90;;;1.90;;
31660;SDS011;18267;52.234;7.444;2022-09-09T01:16:26;8.02;;;2.38;;
31660;SDS011;18267;52.234;7.444;2022-09-09T01:18:54;8.70;;;2.55;;
31660;SDS011;18267;52.234;7.444;2022-09-09T01:26:40;4.47;;;2.10;;
31660;SDS011;18267;52.234;7.444;2022-09-09T01:34:12;4.43;;;1.42;;
31660;SDS011;18267;52.234;7.444;2022-09-09T01:36:42;4.15;;;1.55;;
31660;SDS011;18267;52.234;7.444;2022-09-09T01:39:11;3.95;;;1.58;;
31660;SDS011;18267;52.234;7.444;2022-09-09T01:41:38;5.80;;;1.95;;
31660;SDS011;18267;52.234;7.444;2022-09-09T01:44:03;2.92;;;1.38;;
31660;SDS011;18267;52.234;7.444;2022-09-09T01:46:29;1.85;;;1.10;;
31660;SDS011;18267;52.234;7.444;2022-09-09T01:48:55;2.00;;;1.02;;
31660;SDS011;18267;52.234;7.444;2022-09-09T01:51:23;3.15;;;1.13;;
31660;SDS011;18267;52.234;7.444;2022-09-09T01:53:49;4.25;;;1.15;;
31660;SDS011;18267;52.234;7.444;2022-09-09T02:01:53;4.65;;;1.30;;
31660;SDS011;18267;52.234;7.444;2022-09-09T02:06:57;1.85;;;1.00;;
31660;SDS011;18267;52.234;7.444;2022-09-09T02:09:23;2.42;;;1.25;;
31660;SDS011;18267;52.234;7.444;2022-09-09T02:11:52;1.50;;;1.08;;
31660;SDS011;18267;52.234;7.444;2022-09-09T02:14:35;1.67;;;1.30;;
31660;SDS011;18267;52.234;7.444;2022-09-09T02:17:08;12.80;;;1.15;;
31660;SDS011;18267;52.234;7.444;2022-09-09T02:19:37;1.55;;;1.20;;
31660;SDS011;18267;52.234;7.444;2022-09-09T02:22:15;5.63;;;0.77;;
31660;SDS011;18267;52.234;7.444;2022-09-09T02:24:44;2.60;;;0.85;;
31660;SDS011;18267;52.234;7.444;2022-09-09T02:27:11;5.63;;;1.00;;
31660;SDS011;18267;52.234;7.444;2022-09-09T02:29:39;6.57;;;0.90;;
31660;SDS011;18267;52.234;7.444;2022-09-09T02:32:07;4.32;;;0.95;;
31660;SDS011;18267;52.234;7.444;2022-09-09T02:34:38;0.60;;;0.52;;
31660;SDS011;18267;52.234;7.444;2022-09-09T02:37:08;2.38;;;0.77;;
31660;SDS011;18267;52.234;7.444;2022-09-09T02:39:35;4.15;;;1.20;;
31660;SDS011;18267;52.234;7.444;2022-09-09T02:42:01;3.30;;;0.60;;
31660;SDS011;18267;52.234;7.444;2022-09-09T02:44:29;2.83;;;1.08;;
31660;SDS011;18267;52.234;7.444;2022-09-09T02:50:15;1.50;;;0.93;;
31660;SDS011;18267;52.234;7.444;2022-09-09T02:52:53;3.05;;;0.95;;
31660;SDS011;18267;52.234;7.444;2022-09-09T02:55:47;1.92;;;0.93;;
31660;SDS011;18267;52.234;7.444;2022-09-09T02:58:16;5.43;;;2.03;;
31660;SDS011;18267;52.234;7.444;2022-09-09T03:00:43;1.65;;;1.20;;
31660;SDS011;18267;52.234;7.444;2022-09-09T03:03:14;3.28;;;1.27;;
31660;SDS011;18267;52.234;7.444;2022-09-09T03:05:41;1.55;;;1.20;;
31660;SDS011;18267;52.234;7.444;2022-09-09T03:08:07;5.10;;;1.67;;
31660;SDS011;18267;52.234;7.444;2022-09-09T03:10:32;4.13;;;1.50;;
31660;SDS011;18267;52.234;7.444;2022-09-09T03:12:59;2.53;;;1.33;;
31660;SDS011;18267;52.234;7.444;2022-09-09T03:15:25;4.65;;;1.70;;
31660;SDS011;18267;52.234;7.444;2022-09-09T03:17:55;2.90;;;2.22;;
31660;SDS011;18267;52.234;7.444;2022-09-09T03:20:21;2.20;;;2.00;;
31660;SDS011;18267;52.234;7.444;2022-09-09T03:22:48;4.53;;;2.40;;
31660;SDS011;18267;52.234;7.444;2022-09-09T03:25:13;7.50;;;2.22;;
31660;SDS011;18267;52.234;7.444;2022-09-09T03:27:39;3.20;;;2.35;;
31660;SDS011;18267;52.234;7.444;2022-09-09T03:30:05;8.75;;;3.47;;
31660;SDS011;18267;52.234;7.444;2022-09-09T03:32:33;5.45;;;3.00;;
31660;SDS011;18267;52.234;7.444;2022-09-09T03:34:58;3.53;;;2.58;;
31660;SDS011;18267;52.234;7.444;2022-09-09T03:37:24;8.00;;;3.45;;
31660;SDS011;18267;52.234;7.444;2022-09-09T03:39:50;3.90;;;3.45;;
31660;SDS011;18267;52.234;7.444;2022-09-09T03:42:15;6.22;;;3.85;;
31660;SDS011;18267;52.234;7.444;2022-09-09T03:44:44;6.13;;;3.28;;
31660;SDS011;18267;52.234;7.444;2022-09-09T03:47:18;8.60;;;3.67;;
31660;SDS011;18267;52.234;7.444;2022-09-09T03:49:44;3.05;;;2.75;;
31660;SDS011;18267;52.234;7.444;2022-09-09T03:52:10;6.88;;;4.07;;
31660;SDS011;18267;52.234;7.444;2022-09-09T03:54:36;9.50;;;4.07;;
31660;SDS011;18267;52.234;7.444;2022-09-09T03:57:02;6.05;;;3.97;;
31660;SDS011;18267;52.234;7.444;2022-09-09T03:59:29;7.40;;;4.10;;
31660;SDS011;18267;52.234;7.444;2022-09-09T04:01:56;12.20;;;4.65;;
31660;SDS011;18267;52.234;7.444;2022-09-09T04:04:23;7.10;;;4.30;;
31660;SDS011;18267;52.234;7.444;2022-09-09T04:06:49;5.50;;;3.83;;
31660;SDS011;18267;52.234;7.444;2022-09-09T04:09:15;9.20;;;4.15;;
31660;SDS011;18267;52.234;7.444;2022-09-09T04:11:41;7.28;;;4.00;;
31660;SDS011;18267;52.234;7.444;2022-09-09T04:14:06;4.70;;;4.22;;
31660;SDS011;18267;52.234;7.444;2022-09-09T04:16:32;4.97;;;3.63;;
31660;SDS011;18267;52.234;7.444;2022-09-09T04:18:59;12.57;;;4.10;;
31660;SDS011;18267;52.234;7.444;2022-09-09T04:21:25;6.28;;;4.32;;
31660;SDS011;18267;52.234;7.444;2022-09-09T04:23:51;7.45;;;4.85;;
31660;SDS011;18267;52.234;7.444;2022-09-09T04:26:16;5.38;;;4.55;;
31660;SDS011;18267;52.234;7.444;2022-09-09T04:28:42;7.70;;;4.68;;
31660;SDS011;18267;52.234;7.444;2022-09-09T04:31:09;9.40;;;4.63;;
31660;SDS011;18267;52.234;7.444;2022-09-09T04:33:39;13.40;;;4.68;;
31660;SDS011;18267;52.234;7.444;2022-09-09T04:36:05;7.05;;;4.50;;
31660;SDS011;18267;52.234;7.444;2022-09-09T04:38:31;5.22;;;4.15;;
31660;SDS011;18267;52.234;7.444;2022-09-09T04:40:56;12.13;;;4.22;;
31660;SDS011;18267;52.234;7.444;2022-09-09T04:43:22;6.80;;;4.22;;
31660;SDS011;18267;52.234;7.444;2022-09-09T04:45:48;6.82;;;4.57;;
31660;SDS011;18267;52.234;7.444;2022-09-09T04:48:16;8.45;;;4.43;;
31660;SDS011;18267;52.234;7.444;2022-09-09T04:50:41;8.13;;;4.65;;
31660;SDS011;18267;52.234;7.444;2022-09-09T04:53:07;9.15;;;4.75;;
31660;SDS011;18267;52.234;7.444;2022-09-09T04:55:33;8.45;;;4.78;;
31660;SDS011;18267;52.234;7.444;2022-09-09T04:58:06;6.97;;;4.40;;
31660;SDS011;18267;52.234;7.444;2022-09-09T05:00:33;9.00;;;4.50;;
31660;SDS011;18267;52.234;7.444;2022-09-09T05:03:05;4.50;;;4.03;;
31660;SDS011;18267;52.234;7.444;2022-09-09T05:05:32;9.55;;;4.50;;
31660;SDS011;18267;52.234;7.444;2022-09-09T05:08:04;6.25;;;4.53;;
31660;SDS011;18267;52.234;7.444;2022-09-09T05:10:31;8.40;;;4.30;;
31660;SDS011;18267;52.234;7.444;2022-09-09T05:12:57;6.32;;;3.78;;
31660;SDS011;18267;52.234;7.444;2022-09-09T05:15:22;7.30;;;3.70;;
31660;SDS011;18267;52.234;7.444;2022-09-09T05:17:48;5.70;;;3.85;;
31660;SDS011;18267;52.234;7.444;2022-09-09T05:20:14;4.18;;;3.80;;
31660;SDS011;18267;52.234;7.444;2022-09-09T05:22:39;4.80;;;3.30;;
31660;SDS011;18267;52.234;7.444;2022-09-09T05:25:05;5.25;;;3.70;;
31660;SDS011;18267;52.234;7.444;2022-09-09T05:27:31;6.93;;;3.33;;
31660;SDS011;18267;52.234;7.444;2022-09-09T05:29:59;6.28;;;3.55;;
31660;SDS011;18267;52.234;7.444;2022-09-09T05:32:24;5.90;;;3.55;;
31660;SDS011;18267;52.234;7.444;2022-09-09T05:34:50;7.63;;;3.35;;
31660;SDS011;18267;52.234;7.444;2022-09-09T05:37:16;6.07;;;3.50;;
31660;SDS011;18267;52.234;7.444;2022-09-09T05:39:42;5.25;;;3.50;;
31660;SDS011;18267;52.234;7.444;2022-09-09T05:42:07;9.70;;;3.45;;
31660;SDS011;18267;52.234;7.444;2022-09-09T05:44:33;8.18;;;3.42;;
31660;SDS011;18267;52.234;7.444;2022-09-09T05:46:58;6.28;;;3.10;;
31660;SDS011;18267;52.234;7.444;2022-09-09T05:49:24;5.50;;;3.08;;
31660;SDS011;18267;52.234;7.444;2022-09-09T05:51:50;7.70;;;2.80;;
31660;SDS011;18267;52.234;7.444;2022-09-09T05:54:15;3.53;;;3.03;;
31660;SDS011;18267;52.234;7.444;2022-09-09T05:56:41;6.50;;;3.05;;
31660;SDS011;18267;52.234;7.444;2022-09-09T05:59:07;4.22;;;2.58;;
31660;SDS011;18267;52.234;7.444;2022-09-09T06:01:34;3.03;;;2.72;;
31660;SDS011;18267;52.234;7.444;2022-09-09T06:04:01;3.63;;;2.42;;
31660;SDS011;18267;52.234;7.444;2022-09-09T06:06:31;4.70;;;3.08;;
31660;SDS011;18267;52.234;7.444;2022-09-09T06:09:05;2.80;;;2.60;;
31660;SDS011;18267;52.234;7.444;2022-09-09T06:11:34;4.22;;;2.40;;
31660;SDS011;18267;52.234;7.444;2022-09-09T06:14:01;3.83;;;2.28;;
31660;SDS011;18267;52.234;7.444;2022-09-09T06:16:27;5.88;;;2.47;;
31660;SDS011;18267;52.234;7.444;2022-09-09T06:18:54;4.78;;;2.90;;
31660;SDS011;18267;52.234;7.444;2022-09-09T06:21:24;4.95;;;2.88;;
31660;SDS011;18267;52.234;7.444;2022-09-09T06:23:51;5.13;;;2.97;;
31660;SDS011;18267;52.234;7.444;2022-09-09T06:26:19;3.35;;;2.40;;
31660;SDS011;18267;52.234;7.444;2022-09-09T06:28:49;4.13;;;2.35;;
31660;SDS011;18267;52.234;7.444;2022-09-09T06:31:19;6.43;;;2.88;;
31660;SDS011;18267;52.234;7.444;2022-09-09T06:33:47;7.72;;;2.75;;
31660;SDS011;18267;52.234;7.444;2022-09-09T06:36:15;6.00;;;2.85;;
31660;SDS011;18267;52.234;7.444;2022-09-09T06:38:43;6.32;;;3.22;;
31660;SDS011;18267;52.234;7.444;2022-09-09T06:41:09;3.90;;;2.97;;
31660;SDS011;18267;52.234;7.444;2022-09-09T06:43:36;4.47;;;3.03;;
31660;SDS011;18267;52.234;7.444;2022-09-09T06:46:06;6.32;;;2.90;;
31660;SDS011;18267;52.234;7.444;2022-09-09T06:48:34;5.50;;;2.80;;
31660;SDS011;18267;52.234;7.444;2022-09-09T06:51:03;7.50;;;3.30;;
31660;SDS011;18267;52.234;7.444;2022-09-09T06:53:31;4.32;;;2.95;;
31660;SDS011;18267;52.234;7.444;2022-09-09T06:55:58;5.03;;;3.03;;
31660;SDS011;18267;52.234;7.444;2022-09-09T06:58:26;6.47;;;3.90;;
31660;SDS011;18267;52.234;7.444;2022-09-09T07:01:00;4.05;;;2.60;;
31660;SDS011;18267;52.234;7.444;2022-09-09T07:03:27;10.43;;;3.28;;
31660;SDS011;18267;52.234;7.444;2022-09-09T07:05:53;7.45;;;3.35;;
31660;SDS011;18267;52.234;7.444;2022-09-09T07:08:21;3.88;;;2.80;;
31660;SDS011;18267;52.234;7.444;2022-09-09T07:10:47;6.97;;;3.00;;
31660;SDS011;18267;52.234;7.444;2022-09-09T07:13:13;4.63;;;2.40;;
31660;SDS011;18267;52.234;7.444;2022-09-09T07:15:40;4.43;;;2.88;;
31660;SDS011;18267;52.234;7.444;2022-09-09T07:18:06;7.13;;;3.00;;
31660;SDS011;18267;52.234;7.444;2022-09-09T07:20:32;4.13;;;2.45;;
31660;SDS011;18267;52.234;7.444;2022-09-09T07:22:57;4.60;;;2.90;;
31660;SDS011;18267;52.234;7.444;2022-09-09T07:25:24;3.80;;;2.70;;
31660;SDS011;18267;52.234;7.444;2022-09-09T07:27:52;4.68;;;3.40;;
31660;SDS011;18267;52.234;7.444;2022-09-09T07:30:19;6.20;;;3.13;;
31660;SDS011;18267;52.234;7.444;2022-09-09T07:32:45;7.28;;;3.40;;
31660;SDS011;18267;52.234;7.444;2022-09-09T07:35:10;3.58;;;2.70;;
31660;SDS011;18267;52.234;7.444;2022-09-09T07:37:36;4.57;;;3.05;;
31660;SDS011;18267;52.234;7.444;2022-09-09T07:40:02;4.55;;;2.80;;
31660;SDS011;18267;52.234;7.444;2022-09-09T07:42:28;2.92;;;2.65;;
31660;SDS011;18267;52.234;7.444;2022-09-09T07:44:54;4.43;;;2.92;;
31660;SDS011;18267;52.234;7.444;2022-09-09T07:47:20;7.88;;;2.70;;
31660;SDS011;18267;52.234;7.444;2022-09-09T07:49:46;7.68;;;2.88;;
31660;SDS011;18267;52.234;7.444;2022-09-09T07:52:12;7.10;;;2.88;;
31660;SDS011;18267;52.234;7.444;2022-09-09T07:54:37;3.80;;;2.22;;
31660;SDS011;18267;52.234;7.444;2022-09-09T07:57:03;8.18;;;2.70;;
31660;SDS011;18267;52.234;7.444;2022-09-09T07:59:29;4.72;;;1.90;;
31660;SDS011;18267;52.234;7.444;2022-09-09T08:01:55;7.22;;;2.08;;
31660;SDS011;18267;52.234;7.444;2022-09-09T08:04:21;6.20;;;2.50;;
31660;SDS011;18267;52.234;7.444;2022-09-09T08:06:52;5.43;;;2.42;;
31660;SDS011;18267;52.234;7.444;2022-09-09T08:09:20;4.40;;;2.20;;
31660;SDS011;18267;52.234;7.444;2022-09-09T08:11:47;11.18;;;2.40;;
31660;SDS011;18267;52.234;7.444;2022-09-09T08:14:13;3.67;;;2.10;;
31660;SDS011;18267;52.234;7.444;2022-09-09T08:16:43;4.75;;;2.20;;
31660;SDS011;18267;52.234;7.444;2022-09-09T08:19:11;6.50;;;1.95;;
31660;SDS011;18267;52.234;7.444;2022-09-09T08:21:37;7.22;;;1.98;;
31660;SDS011;18267;52.234;7.444;2022-09-09T08:24:05;9.75;;;2.15;;
31660;SDS011;18267;52.234;7.444;2022-09-09T08:26:34;6.68;;;1.95;;
31660;SDS011;18267;52.234;7.444;2022-09-09T08:29:02;14.65;;;1.95;;
31660;SDS011;18267;52.234;7.444;2022-09-09T08:31:30;7.53;;;2.00;;
31660;SDS011;18267;52.234;7.444;2022-09-09T08:34:00;6.10;;;1.75;;
31660;SDS011;18267;52.234;7.444;2022-09-09T08:36:28;8.57;;;1.52;;
31660;SDS011;18267;52.234;7.444;2022-09-09T08:38:55;8.85;;;2.05;;
31660;SDS011;18267;52.234;7.444;2022-09-09T08:47:09;7.68;;;1.90;;
31660;SDS011;18267;52.234;7.444;2022-09-09T08:55:38;7.40;;;2.10;;
31660;SDS011;18267;52.234;7.444;2022-09-09T09:03:40;12.50;;;3.38;;
31660;SDS011;18267;52.234;7.444;2022-09-09T09:09:04;13.18;;;3.80;;
31660;SDS011;18267;52.234;7.444;2022-09-09T09:11:40;10.18;;;3.00;;
31660;SDS011;18267;52.234;7.444;2022-09-09T09:14:15;8.70;;;3.40;;
31660;SDS011;18267;52.234;7.444;2022-09-09T09:19:25;15.60;;;3.65;;
31660;SDS011;18267;52.234;7.444;2022-09-09T09:22:00;6.78;;;2.80;;
31660;SDS011;18267;52.234;7.444;2022-09-09T09:24:50;9.43;;;3.75;;
31660;SDS011;18267;52.234;7.444;2022-09-09T09:27:33;8.73;;;4.18;;
31660;SDS011;18267;52.234;7.444;2022-09-09T09:29:59;10.50;;;4.05;;
31660;SDS011;18267;52.234;7.444;2022-09-09T09:32:31;6.95;;;3.63;;
31660;SDS011;18267;52.234;7.444;2022-09-09T09:34:59;15.70;;;3.88;;
31660;SDS011;18267;52.234;7.444;2022-09-09T09:37:32;5.70;;;2.70;;
31660;SDS011;18267;52.234;7.444;2022-09-09T09:40:13;11.77;;;3.17;;
31660;SDS011;18267;52.234;7.444;2022-09-09T09:42:55;4.72;;;2.53;;
31660;SDS011;18267;52.234;7.444;2022-09-09T09:48:03;4.53;;;1.88;;
31660;SDS011;18267;52.234;7.444;2022-09-09T09:50:31;7.50;;;2.03;;
31660;SDS011;18267;52.234;7.444;2022-09-09T09:52:59;6.45;;;2.20;;
31660;SDS011;18267;52.234;7.444;2022-09-09T09:55:28;6.43;;;2.25;;
31660;SDS011;18267;52.234;7.444;2022-09-09T09:58:05;4.38;;;1.90;;
31660;SDS011;18267;52.234;7.444;2022-09-09T10:00:32;4.05;;;2.15;;
31660;SDS011;18267;52.234;7.444;2022-09-09T10:03:00;4.68;;;1.88;;
31660;SDS011;18267;52.234;7.444;2022-09-09T10:05:29;6.88;;;2.10;;
31660;SDS011;18267;52.234;7.444;2022-09-09T10:08:12;4.97;;;1.75;;
31660;SDS011;18267;52.234;7.444;2022-09-09T10:10:53;4.25;;;1.40;;
31660;SDS011;18267;52.234;7.444;2022-09-09T10:13:37;19.02;;;1.88;;
31660;SDS011;18267;52.234;7.444;2022-09-09T10:24:30;12.30;;;1.30;;
31660;SDS011;18267;52.234;7.444;2022-09-09T10:27:15;5.78;;;1.02;;
31660;SDS011;18267;52.234;7.444;2022-09-09T10:29:59;4.60;;;1.52;;
31660;SDS011;18267;52.234;7.444;2022-09-09T10:41:15;2.35;;;1.67;;
31660;SDS011;18267;52.234;7.444;2022-09-09T10:49:17;5.28;;;1.10;;
31660;SDS011;18267;52.234;7.444;2022-09-09T10:59:55;4.35;;;1.27;;
31660;SDS011;18267;52.234;7.444;2022-09-09T11:02:31;8.95;;;1.40;;
31660;SDS011;18267;52.234;7.444;2022-09-09T11:05:08;6.05;;;1.30;;
31660;SDS011;18267;52.234;7.444;2022-09-09T11:08:05;4.20;;;1.40;;
31660;SDS011;18267;52.234;7.444;2022-09-09T11:10:41;2.42;;;1.42;;
31660;SDS011;18267;52.234;7.444;2022-09-09T11:13:11;5.88;;;1.40;;
31660;SDS011;18267;52.234;7.444;2022-09-09T11:15:50;1.67;;;1.23;;
31660;SDS011;18267;52.234;7.444;2022-09-09T11:18:20;5.50;;;1.40;;
31660;SDS011;18267;52.234;7.444;2022-09-09T11:20:48;3.17;;;1.40;;
31660;SDS011;18267;52.234;7.444;2022-09-09T11:23:24;4.78;;;1.25;;
31660;SDS011;18267;52.234;7.444;2022-09-09T11:25:58;3.53;;;1.20;;
31660;SDS011;18267;52.234;7.444;2022-09-09T11:44:54;4.50;;;0.85;;
31660;SDS011;18267;52.234;7.444;2022-09-09T11:47:26;3.75;;;1.00;;
31660;SDS011;18267;52.234;7.444;2022-09-09T11:50:09;1.20;;;0.63;;
31660;SDS011;18267;52.234;7.444;2022-09-09T11:56:08;2.73;;;0.70;;
31660;SDS011;18267;52.234;7.444;2022-09-09T11:58:38;7.72;;;1.23;;
31660;SDS011;18267;52.234;7.444;2022-09-09T12:01:13;3.25;;;0.70;;
31660;SDS011;18267;52.234;7.444;2022-09-09T12:03:50;7.53;;;1.13;;
31660;SDS011;18267;52.234;7.444;2022-09-09T12:06:33;1.02;;;0.85;;
31660;SDS011;18267;52.234;7.444;2022-09-09T12:14:44;4.32;;;0.70;;
31660;SDS011;18267;52.234;7.444;2022-09-09T12:17:26;3.05;;;0.68;;
31660;SDS011;18267;52.234;7.444;2022-09-09T12:20:00;1.27;;;0.52;;
31660;SDS011;18267;52.234;7.444;2022-09-09T12:28:18;5.93;;;0.80;;
31660;SDS011;18267;52.234;7.444;2022-09-09T12:33:35;6.22;;;0.60;;
31660;SDS011;18267;52.234;7.444;2022-09-09T12:36:05;3.38;;;0.85;;
31660;SDS011;18267;52.234;7.444;2022-09-09T12:38:38;6.68;;;0.90;;
31660;SDS011;18267;52.234;7.444;2022-09-09T12:41:06;4.50;;;0.75;;
31660;SDS011;18267;52.234;7.444;2022-09-09T12:43:44;2.33;;;0.90;;
31660;SDS011;18267;52.234;7.444;2022-09-09T12:46:12;3.40;;;1.08;;
31660;SDS011;18267;52.234;7.444;2022-09-09T12:48:46;6.47;;;1.10;;
31660;SDS011;18267;52.234;7.444;2022-09-09T12:51:19;6.30;;;0.98;;
31660;SDS011;18267;52.234;7.444;2022-09-09T12:53:50;1.33;;;0.82;;
31660;SDS011;18267;52.234;7.444;2022-09-09T12:56:20;2.80;;;0.77;;
31660;SDS011;18267;52.234;7.444;2022-09-09T12:58:49;1.48;;;0.85;;
31660;SDS011;18267;52.234;7.444;2022-09-09T13:03:53;4.03;;;1.08;;
31660;SDS011;18267;52.234;7.444;2022-09-09T13:06:21;1.55;;;1.05;;
31660;SDS011;18267;52.234;7.444;2022-09-09T13:08:49;1.30;;;0.50;;
31660;SDS011;18267;52.234;7.444;2022-09-09T13:11:24;3.47;;;0.80;;
31660;SDS011;18267;52.234;7.444;2022-09-09T13:14:05;1.52;;;0.80;;
31660;SDS011;18267;52.234;7.444;2022-09-09T13:16:33;3.03;;;0.90;;
31660;SDS011;18267;52.234;7.444;2022-09-09T13:19:07;1.77;;;0.73;;
31660;SDS011;18267;52.234;7.444;2022-09-09T13:21:36;5.88;;;0.80;;
31660;SDS011;18267;52.234;7.444;2022-09-09T13:24:07;2.38;;;0.60;;
31660;SDS011;18267;52.234;7.444;2022-09-09T13:26:55;4.65;;;0.50;;
31660;SDS011;18267;52.234;7.444;2022-09-09T13:29:22;8.43;;;0.77;;
31660;SDS011;18267;52.234;7.444;2022-09-09T13:31:48;1.80;;;0.80;;
31660;SDS011;18267;52.234;7.444;2022-09-09T13:34:30;4.05;;;0.70;;
31660;SDS011;18267;52.234;7.444;2022-09-09T13:37:06;2.72;;;0.60;;
31660;SDS011;18267;52.234;7.444;2022-09-09T13:39:40;1.70;;;0.55;;
31660;SDS011;18267;52.234;7.444;2022-09-09T13:42:27;2.40;;;0.70;;
31660;SDS011;18267;52.234;7.444;2022-09-09T13:44:55;3.15;;;0.43;;
31660;SDS011;18267;52.234;7.444;2022-09-09T13:49:54;2.47;;;0.40;;
31660;SDS011;18267;52.234;7.444;2022-09-09T13:52:20;4.30;;;0.65;;
31660;SDS011;18267;52.234;7.444;2022-09-09T13:54:50;1.77;;;0.52;;
31660;SDS011;18267;52.234;7.444;2022-09-09T13:57:23;4.13;;;1.15;;
31660;SDS011;18267;52.234;7.444;2022-09-09T13:59:50;1.33;;;0.68;;
31660;SDS011;18267;52.234;7.444;2022-09-09T14:02:18;0.90;;;0.55;;
31660;SDS011;18267;52.234;7.444;2022-09-09T14:04:44;2.47;;;0.80;;
31660;SDS011;18267;52.234;7.444;2022-09-09T14:07:11;4.78;;;0.98;;
31660;SDS011;18267;52.234;7.444;2022-09-09T14:09:39;9.60;;;0.80;;
31660;SDS011;18267;52.234;7.444;2022-09-09T14:12:08;0.35;;;0.30;;
31660;SDS011;18267;52.234;7.444;2022-09-09T14:15:34;4.35;;;0.55;;
31660;SDS011;18267;52.234;7.444;2022-09-09T14:18:00;4.00;;;0.60;;
31660;SDS011;18267;52.234;7.444;2022-09-09T14:20:27;4.30;;;0.70;;
31660;SDS011;18267;52.234;7.444;2022-09-09T14:22:52;1.17;;;0.70;;
31660;SDS011;18267;52.234;7.444;2022-09-09T14:25:19;5.60;;;0.60;;
31660;SDS011;18267;52.234;7.444;2022-09-09T14:27:45;2.92;;;0.50;;
31660;SDS011;18267;52.234;7.444;2022-09-09T14:30:11;2.67;;;0.70;;
31660;SDS011;18267;52.234;7.444;2022-09-09T14:32:38;4.45;;;0.70;;
31660;SDS011;18267;52.234;7.444;2022-09-09T14:35:04;2.03;;;0.60;;
31660;SDS011;18267;52.234;7.444;2022-09-09T14:37:32;3.45;;;0.88;;
31660;SDS011;18267;52.234;7.444;2022-09-09T14:40:03;12.80;;;0.95;;
31660;SDS011;18267;52.234;7.444;2022-09-09T14:42:37;2.35;;;0.85;;
31660;SDS011;18267;52.234;7.444;2022-09-09T14:45:15;2.78;;;0.85;;
31660;SDS011;18267;52.234;7.444;2022-09-09T14:47:54;6.35;;;1.10;;
31660;SDS011;18267;52.234;7.444;2022-09-09T14:50:31;4.20;;;1.27;;
31660;SDS011;18267;52.234;7.444;2022-09-09T14:53:01;4.75;;;1.25;;
31660;SDS011;18267;52.234;7.444;2022-09-09T14:55:32;0.88;;;0.63;;
31660;SDS011;18267;52.234;7.444;2022-09-09T14:58:02;2.72;;;1.10;;
31660;SDS011;18267;52.234;7.444;2022-09-09T15:00:31;6.38;;;1.20;;
31660;SDS011;18267;52.234;7.444;2022-09-09T15:03:20;1.55;;;0.95;;
31660;SDS011;18267;52.234;7.444;2022-09-09T15:05:52;5.28;;;1.02;;
31660;SDS011;18267;52.234;7.444;2022-09-09T15:08:20;1.85;;;0.70;;
31660;SDS011;18267;52.234;7.444;2022-09-09T15:10:49;2.00;;;0.80;;
31660;SDS011;18267;52.234;7.444;2022-09-09T15:13:20;1.38;;;0.70;;
31660;SDS011;18267;52.234;7.444;2022-09-09T15:15:47;3.17;;;0.98;;
31660;SDS011;18267;52.234;7.444;2022-09-09T15:18:15;1.48;;;0.60;;
31660;SDS011;18267;52.234;7.444;2022-09-09T15:20:44;2.33;;;0.80;;
31660;SDS011;18267;52.234;7.444;2022-09-09T15:23:11;3.83;;;0.70;;
31660;SDS011;18267;52.234;7.444;2022-09-09T15:25:37;1.25;;;0.70;;
31660;SDS011;18267;52.234;7.444;2022-09-09T15:28:25;2.33;;;0.60;;
31660;SDS011;18267;52.234;7.444;2022-09-09T15:30:52;2.78;;;0.68;;
31660;SDS011;18267;52.234;7.444;2022-09-09T15:33:19;1.33;;;0.70;;
31660;SDS011;18267;52.234;7.444;2022-09-09T15:35:47;3.72;;;0.50;;
31660;SDS011;18267;52.234;7.444;2022-09-09T15:38:17;1.27;;;0.32;;
31660;SDS011;18267;52.234;7.444;2022-09-09T15:40:44;1.75;;;0.82;;
31660;SDS011;18267;52.234;7.444;2022-09-09T15:43:11;3.15;;;0.45;;
31660;SDS011;18267;52.234;7.444;2022-09-09T15:45:38;1.52;;;0.45;;
31660;SDS011;18267;52.234;7.444;2022-09-09T15:48:05;2.00;;;0.70;;
31660;SDS011;18267;52.234;7.444;2022-09-09T15:50:30;1.75;;;1.08;;
31660;SDS011;18267;52.234;7.444;2022-09-09T15:52:57;2.63;;;0.80;;
31660;SDS011;18267;52.234;7.444;2022-09-09T15:55:26;1.63;;;0.60;;
31660;SDS011;18267;52.234;7.444;2022-09-09T15:57:55;1.90;;;0.90;;
31660;SDS011;18267;52.234;7.444;2022-09-09T16:00:22;1.98;;;0.73;;
31660;SDS011;18267;52.234;7.444;2022-09-09T16:02:49;1.88;;;0.85;;
31660;SDS011;18267;52.234;7.444;2022-09-09T16:05:14;2.08;;;0.60;;
31660;SDS011;18267;52.234;7.444;2022-09-09T16:07:41;1.55;;;0.70;;
31660;SDS011;18267;52.234;7.444;2022-09-09T16:10:08;2.75;;;0.70;;
31660;SDS011;18267;52.234;7.444;2022-09-09T16:12:36;0.80;;;0.60;;
31660;SDS011;18267;52.234;7.444;2022-09-09T16:15:03;1.77;;;0.68;;
31660;SDS011;18267;52.234;7.444;2022-09-09T16:17:30;5.32;;;0.80;;
31660;SDS011;18267;52.234;7.444;2022-09-09T16:20:02;3.13;;;0.75;;
31660;SDS011;18267;52.234;7.444;2022-09-09T16:22:30;2.72;;;0.73;;
31660;SDS011;18267;52.234;7.444;2022-09-09T16:24:57;2.88;;;0.60;;
31660;SDS011;18267;52.234;7.444;2022-09-09T16:27:23;4.28;;;1.02;;
31660;SDS011;18267;52.234;7.444;2022-09-09T16:29:48;1.05;;;0.82;;
31660;SDS011;18267;52.234;7.444;2022-09-09T16:32:14;0.82;;;0.45;;
31660;SDS011;18267;52.234;7.444;2022-09-09T16:34:39;2.83;;;0.65;;
31660;SDS011;18267;52.234;7.444;2022-09-09T16:37:05;0.73;;;0.57;;
31660;SDS011;18267;52.234;7.444;2022-09-09T16:39:32;3.20;;;0.75;;
31660;SDS011;18267;52.234;7.444;2022-09-09T16:41:58;1.60;;;0.40;;
31660;SDS011;18267;52.234;7.444;2022-09-09T16:44:26;2.97;;;0.57;;
31660;SDS011;18267;52.234;7.444;2022-09-09T16:46:52;1.35;;;0.90;;
31660;SDS011;18267;52.234;7.444;2022-09-09T16:49:19;2.28;;;0.60;;
31660;SDS011;18267;52.234;7.444;2022-09-09T16:51:47;4.40;;;0.73;;
31660;SDS011;18267;52.234;7.444;2022-09-09T16:54:15;1.58;;;0.52;;
31660;SDS011;18267;52.234;7.444;2022-09-09T16:56:43;4.38;;;0.50;;
31660;SDS011;18267;52.234;7.444;2022-09-09T16:59:12;2.80;;;0.77;;
31660;SDS011;18267;52.234;7.444;2022-09-09T17:01:40;0.80;;;0.40;;
31660;SDS011;18267;52.234;7.444;2022-09-09T17:04:08;0.57;;;0.38;;
31660;SDS011;18267;52.234;7.444;2022-09-09T17:06:40;2.40;;;0.60;;
31660;SDS011;18267;52.234;7.444;2022-09-09T17:09:08;2.25;;;0.40;;
31660;SDS011;18267;52.234;7.444;2022-09-09T17:11:35;1.55;;;0.57;;
31660;SDS011;18267;52.234;7.444;2022-09-09T17:14:05;1.23;;;0.60;;
31660;SDS011;18267;52.234;7.444;2022-09-09T17:16:34;7.03;;;0.50;;
31660;SDS011;18267;52.234;7.444;2022-09-09T17:19:01;3.70;;;0.60;;
31660;SDS011;18267;52.234;7.444;2022-09-09T17:21:28;3.10;;;0.80;;
31660;SDS011;18267;52.234;7.444;2022-09-09T17:23:56;2.72;;;0.57;;
31660;SDS011;18267;52.234;7.444;2022-09-09T17:26:23;4.05;;;0.70;;
31660;SDS011;18267;52.234;7.444;2022-09-09T17:28:54;2.50;;;0.80;;
31660;SDS011;18267;52.234;7.444;2022-09-09T17:31:22;2.33;;;0.70;;
31660;SDS011;18267;52.234;7.444;2022-09-09T17:33:48;4.13;;;0.52;;
31660;SDS011;18267;52.234;7.444;2022-09-09T17:36:21;1.08;;;0.50;;
31660;SDS011;18267;52.234;7.444;2022-09-09T17:38:49;3.75;;;0.50;;